Archival Weather

Dewar Lakes

Dewar Lakes, Canada (CWUW)

Report from: Friday, May 26, 2023 7:00 PM EDT
Current time: Monday, July 22, 2024 6:46 AM EDT

Current weather – Weather history – Daily summaries
Weather forecast

Present weatherSM
Temperature-12.0°C (10.4°F)
Wind chill-24.1°C (-11.4°F)
Dew point-14.0°C (6.8°F)
Winds 25 kts (12.9 m/s, 28.8 mph) West (270°)
Visibility0 ft. (0 m)
Altimeter29.77 in.Hg (1008 mB)
Relative humidity85 %
Density altitude-3,178 ft. (-969 m)
Remarks Fully automated report
Flight conditions Low Instrument Meteorological Conditions
Raw dataCWUW 262300Z AUTO 27025KT ////SM ////// M12/M14 A2977
An error has occurred. This application may no longer respond until reloaded. Reload 🗙